ADDS TAF Board (Experimental) INFO Settings

IDs: Format: Expanded Condensed

KCVG - Cincinnati Intl, KY, US

Issued at 1126 UTC 29 Mar 2015
Updated at: 1342 UTC 29 Mar 2015
Time1252Z 29/14Z 29/15Z 29/16Z 29/17Z 29/18Z 29/19Z 29/20Z 29/21Z 29/22Z 29/23Z 30/00Z 30/01Z 30/02Z
Type OBS PRVL PRVL PRVL PRVL PRVL PRVL PRVL PRVL PRVL PRVL PRVL PRVL PRVL
VIS 10 >6 >6 >6 >6 >6 >6 >6 >6 >6 >6 >6 >6 >6
CIG -- -- -- 150 150 150 150 150 150 80 80 80 80 80
Cover SCT SCT SCT BKN BKN BKN BKN BKN BKN OVC OVC OVC OVC OVC
FltCat VFR VFR VFR VFR VFR VFR VFR VFR VFR VFR VFR VFR VFR VFR
WX -- -- -- -- -- -- -- -- -- -SHRA -SHRA -SHRA -SHRA -SHRA
WDir 170 180 180 180 180 180 180 180 180 200 200 200 200 200
WSpd 12 10 10 12 12 12 12 12 12 10 10 10 10 10
WGst -- -- -- 22 22 22 22 22 22 -- -- -- -- --
R09/27
XWnd -12 -10 -10 -12 -12 -12 -12 -12 -12 -9 -9 -9 -9 -9
XGst -- -- -- -22 -22 -22 -22 -22 -22 -- -- -- -- --
HWnd 2 0 0 0 0 0 0 0 0 -3 -3 -3 -3 -3
HGst -- -- -- 0 0 0 0 0 0 -- -- -- -- --
R18/36
XWnd 2 0 0 0 0 0 0 0 0 -3 -3 -3 -3 -3
XGst -- -- -- 0 0 0 0 0 0 -- -- -- -- --
HWnd 12 10 10 12 12 12 12 12 12 9 9 9 9 9
HGst -- -- -- 22 22 22 22 22 22 -- -- -- -- --

NOTE: TEMPO conditions in [brackets]. Keep in mind TEMPO conditions might be better (lower impact) than prevailing conditions.

Raw TAF
KCVG 291126Z 2912/3018 18006KT P6SM SKC
  FM291300 18010KT P6SM SCT200
  FM291600 18012G22KT P6SM BKN150
  FM292200 20010KT P6SM -SHRA SCT050 OVC080
  FM300500 23010KT P6SM VCSH SCT012 OVC022
  FM300900 27010KT P6SM SCT250


Raw METAR
KCVG 291252Z 17012KT 10SM FEW150 SCT200 M02/M09 A3034 RMK AO2 SLP282 T10221089
KCVG 291152Z 16011KT 10SM FEW150 SCT200 M04/M10 A3032 RMK AO2 SLP274 T10391100 11028 21056 58005
KCVG 291052Z 18005KT 10SM CLR M05/M11 A3034 RMK AO2 SLP280 T10501111

METAR Board
Radar Display
Forecast Discussion

TAF Board Legend

Potential Impact
Threat None Slight Moderate High
Visibility (sm) ≥5.1 5.1>X≥3 3>X≥1 <1
Ceiling (100 ft) ≥30.1 30.1>X≥10 10>X≥5 <5
Wind Speed (kt) <10 10≤X<20 20≤X<30 ≥30
Wind Gust (kt) <15 15≤X<25 25≤X<35 ≥35
Weather No Wx Reported VCTS,-TS,-FZRA,SN TS,FZRA +TS,+FZRA,+SN